createdAt,value
2023-04-15T00:00:48.208Z,943.78
2023-04-15T00:01:50.347Z,943.72
2023-04-15T00:02:52.337Z,943.75
2023-04-15T00:03:54.289Z,943.68
2023-04-15T00:04:56.255Z,943.66
2023-04-15T00:05:58.230Z,943.68
2023-04-15T00:07:00.203Z,943.68
2023-04-15T00:08:02.215Z,943.7
2023-04-15T00:09:04.201Z,943.67
2023-04-15T00:10:06.261Z,943.65
2023-04-15T00:11:08.256Z,943.64
2023-04-15T00:12:10.245Z,943.64
2023-04-15T00:13:13.220Z,943.64
2023-04-15T00:14:15.240Z,943.61
2023-04-15T00:15:18.264Z,943.63
2023-04-15T00:16:20.236Z,943.64
2023-04-15T00:17:22.238Z,943.59
2023-04-15T00:18:24.215Z,943.62
2023-04-15T00:19:26.214Z,943.56
2023-04-15T00:20:28.266Z,943.57
2023-04-15T00:21:30.228Z,943.65
2023-04-15T00:22:45.679Z,943.53
2023-04-15T00:23:34.223Z,943.61
2023-04-15T00:24:36.222Z,943.6
2023-04-15T00:25:38.266Z,943.56
2023-04-15T00:26:40.275Z,943.59
2023-04-15T00:27:42.230Z,943.57
2023-04-15T00:28:44.219Z,943.57
2023-04-15T00:29:46.235Z,943.54
2023-04-15T00:30:48.257Z,943.53
2023-04-15T00:31:50.269Z,943.53
2023-04-15T00:32:52.319Z,943.51
2023-04-15T00:33:55.220Z,943.48
2023-04-15T00:35:09.610Z,943.51
2023-04-15T00:35:59.231Z,943.51
2023-04-15T00:37:01.289Z,943.5
2023-04-15T00:38:03.233Z,943.48
2023-04-15T00:39:05.230Z,943.47
2023-04-15T00:40:07.238Z,943.46
2023-04-15T00:41:10.234Z,943.49
2023-04-15T00:42:12.293Z,943.5
2023-04-15T00:44:18.271Z,943.47
2023-04-15T00:45:20.261Z,943.5
2023-04-15T00:46:22.251Z,943.49
2023-04-15T00:47:25.308Z,943.5
2023-04-15T00:48:27.244Z,943.47
2023-04-15T00:49:29.279Z,943.44
2023-04-15T00:51:11.464Z,943.46
2023-04-15T00:52:11.480Z,943.44
2023-04-15T00:53:11.469Z,943.48
2023-04-15T00:54:11.518Z,943.45
2023-04-15T00:55:11.487Z,943.41
2023-04-15T00:56:11.474Z,943.45
2023-04-15T00:57:11.476Z,943.36
2023-04-15T00:58:11.470Z,943.4
2023-04-15T00:59:11.520Z,943.36
2023-04-15T01:01:11.548Z,943.33
2023-04-15T01:02:11.520Z,943.32
2023-04-15T01:03:11.694Z,943.34
2023-04-15T01:04:11.533Z,943.37
2023-04-15T01:05:11.515Z,943.29
2023-04-15T01:06:11.476Z,943.35
2023-04-15T01:07:11.498Z,943.29
2023-04-15T01:08:11.476Z,943.28
2023-04-15T01:09:11.481Z,943.27
2023-04-15T01:11:11.527Z,943.25
2023-04-15T01:12:13.262Z,943.27
2023-04-15T01:13:15.274Z,943.25
2023-04-15T01:14:19.310Z,943.23
2023-04-15T01:15:21.277Z,943.23
2023-04-15T01:16:23.301Z,943.25
2023-04-15T01:17:25.295Z,943.26
2023-04-15T01:18:27.259Z,943.24
2023-04-15T01:19:30.261Z,943.23
2023-04-15T01:20:32.310Z,943.18
2023-04-15T01:21:34.287Z,943.21
2023-04-15T01:22:36.269Z,943.17
2023-04-15T01:23:38.293Z,943.21
2023-04-15T01:24:40.278Z,943.16
2023-04-15T01:25:42.291Z,943.15
2023-04-15T01:26:44.706Z,943.15
2023-04-15T01:27:46.264Z,943.12
2023-04-15T01:28:48.273Z,943.14
2023-04-15T01:29:50.322Z,943.15
2023-04-15T01:31:11.553Z,943.15
2023-04-15T01:32:11.488Z,943.15
2023-04-15T01:33:11.489Z,943.13
2023-04-15T01:34:11.487Z,943.14
2023-04-15T01:35:11.587Z,943.17
2023-04-15T01:36:11.511Z,943.15
2023-04-15T01:37:11.511Z,943.16
2023-04-15T01:38:11.504Z,943.14
2023-04-15T01:39:11.497Z,943.13
2023-04-15T01:41:11.551Z,943.13
2023-04-15T01:42:11.503Z,943.07
2023-04-15T01:43:11.530Z,943.07
2023-04-15T01:44:11.557Z,943.06
2023-04-15T01:45:11.496Z,943.07
2023-04-15T01:46:11.562Z,943.07
2023-04-15T01:47:11.557Z,943.02
2023-04-15T01:48:11.496Z,943.05
2023-04-15T01:49:11.513Z,943.05
2023-04-15T01:50:11.556Z,943.02
2023-04-15T01:51:11.517Z,942.98
2023-04-15T01:52:11.548Z,942.96
2023-04-15T01:53:11.520Z,943.01
2023-04-15T01:54:11.513Z,942.97
2023-04-15T01:55:11.627Z,942.97
2023-04-15T01:56:11.516Z,942.99
2023-04-15T01:57:11.523Z,942.98
2023-04-15T01:58:11.532Z,942.93
2023-04-15T01:59:11.522Z,942.97
2023-04-15T02:00:11.570Z,942.93
2023-04-15T02:01:11.557Z,942.96
2023-04-15T02:02:11.532Z,942.96
2023-04-15T02:03:11.605Z,942.97
2023-04-15T02:04:11.615Z,942.92
2023-04-15T02:05:11.516Z,942.95
2023-04-15T02:06:11.533Z,942.92
2023-04-15T02:07:11.541Z,942.91
2023-04-15T02:08:11.522Z,942.91
2023-04-15T02:09:11.576Z,942.93
2023-04-15T02:10:11.612Z,942.92
2023-04-15T02:11:13.303Z,942.92
2023-04-15T02:12:15.329Z,942.91
2023-04-15T02:13:19.313Z,942.9
2023-04-15T02:14:21.346Z,942.89
2023-04-15T02:15:23.341Z,942.91
2023-04-15T02:16:25.396Z,942.87
2023-04-15T02:17:27.323Z,942.92
2023-04-15T02:18:29.307Z,942.88
2023-04-15T02:19:31.383Z,942.82
2023-04-15T02:20:33.351Z,942.86
2023-04-15T02:21:35.356Z,942.83
2023-04-15T02:22:37.312Z,942.85
2023-04-15T02:23:40.308Z,942.82
2023-04-15T02:24:42.326Z,942.78
2023-04-15T02:25:57.729Z,942.8
2023-04-15T02:26:46.316Z,942.83
2023-04-15T02:27:48.356Z,942.78
2023-04-15T02:28:50.310Z,942.8
2023-04-15T02:29:52.320Z,942.81
2023-04-15T02:30:54.415Z,942.79
2023-04-15T02:31:56.362Z,942.82
2023-04-15T02:32:58.407Z,942.81
2023-04-15T02:34:00.315Z,942.8
2023-04-15T02:35:02.352Z,942.86
2023-04-15T02:36:04.385Z,942.85
2023-04-15T02:37:06.322Z,942.89
2023-04-15T02:38:08.318Z,942.81
2023-04-15T02:39:10.318Z,942.86
2023-04-15T02:41:15.394Z,942.87
2023-04-15T02:42:18.322Z,942.81
2023-04-15T02:43:20.327Z,942.83
2023-04-15T02:44:22.336Z,942.85
2023-04-15T02:45:25.372Z,942.83
2023-04-15T02:46:27.376Z,942.84
2023-04-15T02:47:29.347Z,942.77
2023-04-15T02:48:31.325Z,942.79
2023-04-15T02:49:33.326Z,942.75
2023-04-15T02:50:35.426Z,942.78
2023-04-15T02:51:37.328Z,942.79
2023-04-15T02:52:39.330Z,942.82
2023-04-15T02:53:41.366Z,942.78
2023-04-15T02:54:43.336Z,942.7
2023-04-15T02:55:45.369Z,942.79
2023-04-15T02:56:47.346Z,942.76
2023-04-15T02:57:49.373Z,942.76
2023-04-15T02:58:51.331Z,942.74
2023-04-15T02:59:53.336Z,942.74
2023-04-15T03:00:55.379Z,942.73
2023-04-15T03:01:57.398Z,942.7
2023-04-15T03:03:00.491Z,942.69
2023-04-15T03:04:02.526Z,942.72
2023-04-15T03:05:04.352Z,942.72
2023-04-15T03:06:06.373Z,942.72
2023-04-15T03:07:08.388Z,942.69
2023-04-15T03:08:10.387Z,942.72
2023-04-15T03:09:12.343Z,942.72
2023-04-15T03:11:18.344Z,942.65
2023-04-15T03:12:20.346Z,942.65
2023-04-15T03:13:22.340Z,942.65
2023-04-15T03:14:24.342Z,942.71
2023-04-15T03:15:26.378Z,942.65
2023-04-15T03:16:28.428Z,942.63
2023-04-15T03:17:30.405Z,942.64
2023-04-15T03:18:32.346Z,942.63
2023-04-15T03:19:34.338Z,942.7
2023-04-15T03:20:36.407Z,942.62
2023-04-15T03:21:38.398Z,942.62
2023-04-15T03:22:40.348Z,942.59
2023-04-15T03:23:42.348Z,942.61
2023-04-15T03:24:44.355Z,942.58
2023-04-15T03:25:46.353Z,942.57
2023-04-15T03:26:48.447Z,942.54
2023-04-15T03:27:50.406Z,942.54
2023-04-15T03:28:52.360Z,942.48
2023-04-15T03:29:54.347Z,942.44
2023-04-15T03:31:09.762Z,942.42
2023-04-15T03:31:58.419Z,942.45
2023-04-15T03:33:00.395Z,942.39
2023-04-15T03:34:02.363Z,942.4
2023-04-15T03:35:04.366Z,942.4
2023-04-15T03:36:06.360Z,942.37
2023-04-15T03:37:08.411Z,942.31
2023-04-15T03:38:10.357Z,942.32
2023-04-15T03:39:12.367Z,942.31
2023-04-15T03:41:18.361Z,942.26
2023-04-15T03:42:20.476Z,942.22
2023-04-15T03:43:22.365Z,942.23
2023-04-15T03:44:24.403Z,942.25
2023-04-15T03:45:26.366Z,942.25
2023-04-15T03:46:28.383Z,942.27
2023-04-15T03:48:17.942Z,942.26
2023-04-15T03:49:11.630Z,942.26
2023-04-15T03:50:11.616Z,942.28
2023-04-15T03:51:11.588Z,942.29
2023-04-15T03:52:11.590Z,942.31
2023-04-15T03:53:11.619Z,942.34
2023-04-15T03:54:11.635Z,942.36
2023-04-15T03:55:49.366Z,942.35
2023-04-15T03:56:51.372Z,942.34
2023-04-15T03:57:54.368Z,942.39
2023-04-15T03:58:56.372Z,942.44
2023-04-15T03:59:58.415Z,942.4
2023-04-15T04:01:00.370Z,942.43
2023-04-15T04:02:02.548Z,942.39
2023-04-15T04:03:04.673Z,942.34
2023-04-15T04:04:06.453Z,942.36
2023-04-15T04:05:08.422Z,942.34
2023-04-15T04:06:10.374Z,942.35
2023-04-15T04:07:12.375Z,942.38
2023-04-15T04:08:15.393Z,942.39
2023-04-15T04:09:18.426Z,942.4
2023-04-15T04:11:22.381Z,942.43
2023-04-15T04:12:24.432Z,942.43
2023-04-15T04:13:26.387Z,942.44
2023-04-15T04:14:28.423Z,942.42
2023-04-15T04:15:30.408Z,942.42
2023-04-15T04:16:32.395Z,942.41
2023-04-15T04:17:34.497Z,942.42
2023-04-15T04:18:36.390Z,942.43
2023-04-15T04:19:38.432Z,942.44
2023-04-15T04:20:40.393Z,942.41
2023-04-15T04:21:42.380Z,942.45
2023-04-15T04:22:44.387Z,942.43
2023-04-15T04:23:46.387Z,942.48
2023-04-15T04:24:48.490Z,942.52
2023-04-15T04:25:50.397Z,942.48
2023-04-15T04:26:52.432Z,942.46
2023-04-15T04:27:54.401Z,942.46
2023-04-15T04:28:56.404Z,942.49
2023-04-15T04:29:58.398Z,942.45
2023-04-15T04:31:00.404Z,942.44
2023-04-15T04:32:02.499Z,942.44
2023-04-15T04:33:04.420Z,942.45
2023-04-15T04:34:06.399Z,942.5
2023-04-15T04:35:08.397Z,942.48
2023-04-15T04:36:10.390Z,942.49
2023-04-15T04:37:12.494Z,942.51
2023-04-15T04:38:15.408Z,942.55
2023-04-15T04:39:18.394Z,942.53
2023-04-15T04:40:20.399Z,942.58
2023-04-15T04:41:22.399Z,942.62
2023-04-15T04:42:24.432Z,942.62
2023-04-15T04:43:26.401Z,942.67
2023-04-15T04:44:28.443Z,942.63
2023-04-15T04:45:30.400Z,942.64
2023-04-15T04:46:32.393Z,942.65
2023-04-15T04:47:34.455Z,942.68
2023-04-15T04:48:36.407Z,942.66
2023-04-15T04:49:38.451Z,942.65
2023-04-15T04:50:41.412Z,942.68
2023-04-15T04:51:43.408Z,942.71
2023-04-15T04:52:45.498Z,942.75
2023-04-15T04:53:47.412Z,942.71
2023-04-15T04:54:49.457Z,942.79
2023-04-15T04:55:51.411Z,942.76
2023-04-15T04:56:53.411Z,942.79
2023-04-15T04:57:55.409Z,942.78
2023-04-15T04:58:57.420Z,942.76
2023-04-15T04:59:59.460Z,942.76
2023-04-15T05:01:02.439Z,942.72
2023-04-15T05:02:04.470Z,942.72
2023-04-15T05:03:06.609Z,942.72
2023-04-15T05:04:08.506Z,942.69
2023-04-15T05:05:10.497Z,942.72
2023-04-15T05:06:12.425Z,942.71
2023-04-15T05:07:15.448Z,942.67
2023-04-15T05:08:18.422Z,942.64
2023-04-15T05:09:20.468Z,942.67
2023-04-15T05:10:22.469Z,942.71
2023-04-15T05:11:24.434Z,942.72
2023-04-15T05:12:27.421Z,942.69
2023-04-15T05:13:29.427Z,942.72
2023-04-15T05:14:31.418Z,942.73
2023-04-15T05:15:33.447Z,942.71
2023-04-15T05:16:35.431Z,942.7
2023-04-15T05:17:37.478Z,942.73
2023-04-15T05:18:39.425Z,942.78
2023-04-15T05:19:41.420Z,942.76
2023-04-15T05:21:11.653Z,942.75
2023-04-15T05:22:11.703Z,942.74
2023-04-15T05:23:11.654Z,942.73
2023-04-15T05:24:11.701Z,942.82
2023-04-15T05:25:11.668Z,942.74
2023-04-15T05:26:11.657Z,942.75
2023-04-15T05:27:11.720Z,942.78
2023-04-15T05:28:11.657Z,942.73
2023-04-15T05:29:11.658Z,942.72
2023-04-15T05:30:13.555Z,942.75
2023-04-15T05:31:11.785Z,942.76
2023-04-15T05:32:11.657Z,942.74
2023-04-15T05:33:11.667Z,942.78
2023-04-15T05:34:11.666Z,942.75
2023-04-15T05:35:11.665Z,942.77
2023-04-15T05:36:15.511Z,942.75
2023-04-15T05:37:18.492Z,942.81
2023-04-15T05:38:20.461Z,942.83
2023-04-15T05:39:22.498Z,942.83
2023-04-15T05:40:24.467Z,942.85
2023-04-15T05:41:26.452Z,942.86
2023-04-15T05:42:28.483Z,942.87
2023-04-15T05:43:30.451Z,942.91
2023-04-15T05:44:33.476Z,942.87
2023-04-15T05:45:34.459Z,942.9
2023-04-15T05:46:36.630Z,942.91
2023-04-15T05:47:38.509Z,942.91
2023-04-15T05:48:40.452Z,942.94
2023-04-15T05:49:42.452Z,943
2023-04-15T05:50:44.473Z,942.94
2023-04-15T05:51:47.467Z,942.97
2023-04-15T05:53:11.731Z,942.96
2023-04-15T05:54:11.694Z,942.93
2023-04-15T05:55:11.718Z,942.93
2023-04-15T05:56:11.679Z,942.94
2023-04-15T05:57:11.690Z,942.98
2023-04-15T05:58:23.591Z,942.98
2023-04-15T05:59:11.679Z,943
2023-04-15T06:00:11.683Z,942.98
2023-04-15T06:01:11.690Z,942.93
2023-04-15T06:02:11.818Z,942.95
2023-04-15T06:03:11.847Z,942.91
2023-04-15T06:04:13.554Z,942.91
2023-04-15T06:05:15.486Z,942.92
2023-04-15T06:06:19.463Z,942.94
2023-04-15T06:07:21.473Z,942.97
2023-04-15T06:08:23.467Z,942.96
2023-04-15T06:09:25.490Z,942.96
2023-04-15T06:10:27.512Z,942.98
2023-04-15T06:11:29.517Z,942.96
2023-04-15T06:12:31.472Z,942.93
2023-04-15T06:13:33.498Z,942.88
2023-04-15T06:14:35.470Z,942.9
2023-04-15T06:15:37.468Z,942.92
2023-04-15T06:16:39.533Z,942.9
2023-04-15T06:17:41.498Z,942.89
2023-04-15T06:19:45.519Z,942.88
2023-04-15T06:20:47.466Z,942.88
2023-04-15T06:21:49.488Z,942.9
2023-04-15T06:22:51.471Z,942.94
2023-04-15T06:23:53.472Z,942.98
2023-04-15T06:24:55.520Z,942.96
2023-04-15T06:25:57.570Z,942.94
2023-04-15T06:26:59.505Z,942.97
2023-04-15T06:28:01.517Z,942.94
2023-04-15T06:29:03.665Z,942.95
2023-04-15T06:30:05.491Z,942.97
2023-04-15T06:31:07.576Z,943
2023-04-15T06:32:09.548Z,943.03
2023-04-15T06:33:11.491Z,943
2023-04-15T06:34:13.508Z,943.05
2023-04-15T06:35:15.507Z,943.01
2023-04-15T06:37:22.636Z,942.97
2023-04-15T06:38:24.479Z,942.96
2023-04-15T06:39:26.480Z,942.95
2023-04-15T06:41:11.711Z,943.02
2023-04-15T06:42:11.755Z,943
2023-04-15T06:43:11.760Z,942.99
2023-04-15T06:44:11.706Z,943
2023-04-15T06:45:11.747Z,942.98
2023-04-15T06:46:11.794Z,943.02
2023-04-15T06:47:11.714Z,943.04
2023-04-15T06:48:11.702Z,943.04
2023-04-15T06:49:11.843Z,942.99
2023-04-15T06:50:48.541Z,943.04
2023-04-15T06:51:51.493Z,943.04
2023-04-15T06:52:53.547Z,943.04
2023-04-15T06:53:56.489Z,943.04
2023-04-15T06:54:58.497Z,943.08
2023-04-15T06:57:03.503Z,943.1
2023-04-15T06:58:06.531Z,943.1
2023-04-15T06:59:08.545Z,943.11
2023-04-15T07:00:10.518Z,943.13
2023-04-15T07:01:12.546Z,943.16
2023-04-15T07:02:15.564Z,943.16
2023-04-15T07:03:17.755Z,943.24
2023-04-15T07:04:19.772Z,943.22
2023-04-15T07:05:21.713Z,943.16
2023-04-15T07:07:25.698Z,943.16
2023-04-15T07:08:27.653Z,943.18
2023-04-15T07:09:29.650Z,943.18
2023-04-15T07:11:33.706Z,943.21
2023-04-15T07:12:35.760Z,943.23
2023-04-15T07:13:38.667Z,943.28
2023-04-15T07:14:40.700Z,943.29
2023-04-15T07:15:42.659Z,943.29
2023-04-15T07:16:44.696Z,943.3
2023-04-15T07:17:46.831Z,943.28
2023-04-15T07:18:49.665Z,943.28
2023-04-15T07:19:51.693Z,943.28
2023-04-15T07:20:53.680Z,943.34
2023-04-15T07:21:55.692Z,943.33
2023-04-15T07:22:57.711Z,943.38
2023-04-15T07:23:59.670Z,943.37
2023-04-15T07:25:01.691Z,943.32
2023-04-15T07:26:04.669Z,943.33
2023-04-15T07:28:09.223Z,943.38
2023-04-15T07:29:11.736Z,943.38
2023-04-15T07:31:14.811Z,943.38
2023-04-15T07:32:17.684Z,943.31
2023-04-15T07:33:19.719Z,943.31
2023-04-15T07:34:21.730Z,943.37
2023-04-15T07:35:23.680Z,943.39
2023-04-15T07:36:25.699Z,943.32
2023-04-15T07:37:27.678Z,943.36
2023-04-15T07:38:29.680Z,943.36
2023-04-15T07:40:11.778Z,943.4
2023-04-15T07:41:11.746Z,943.39
2023-04-15T07:42:11.762Z,943.36
2023-04-15T07:43:11.833Z,943.4
2023-04-15T07:44:11.752Z,943.4
2023-04-15T07:45:11.804Z,943.37
2023-04-15T07:46:46.687Z,943.37
2023-04-15T07:47:49.113Z,943.36
2023-04-15T07:49:11.787Z,943.36
2023-04-15T07:50:12.486Z,943.39
2023-04-15T07:51:11.753Z,943.43
2023-04-15T07:52:11.756Z,943.44
2023-04-15T07:53:11.768Z,943.49
2023-04-15T07:54:11.769Z,943.53
2023-04-15T07:56:11.827Z,943.5
2023-04-15T07:57:11.766Z,943.54
2023-04-15T07:59:11.920Z,943.57
2023-04-15T08:00:14.778Z,943.55
2023-04-15T08:01:17.738Z,943.51
2023-04-15T08:02:19.913Z,943.52
2023-04-15T08:03:21.762Z,943.48
2023-04-15T08:04:23.966Z,943.49
2023-04-15T08:05:25.779Z,943.45
2023-04-15T08:06:40.217Z,943.43
2023-04-15T08:07:29.700Z,943.48
2023-04-15T08:08:31.700Z,943.48
2023-04-15T08:09:33.711Z,943.49
2023-04-15T08:10:35.740Z,943.53
2023-04-15T08:11:37.712Z,943.55
2023-04-15T08:12:39.710Z,943.54
2023-04-15T08:14:43.704Z,943.57
2023-04-15T08:15:46.843Z,943.59
2023-04-15T08:16:48.715Z,943.59
2023-04-15T08:17:51.808Z,943.55
2023-04-15T08:18:53.711Z,943.6
2023-04-15T08:19:55.720Z,943.6
2023-04-15T08:21:11.879Z,943.64
2023-04-15T08:22:16.022Z,943.67
2023-04-15T08:23:11.790Z,943.67
2023-04-15T08:24:11.804Z,943.65
2023-04-15T08:25:11.786Z,943.66
2023-04-15T08:26:11.845Z,943.66
2023-04-15T08:27:11.791Z,943.72
2023-04-15T08:28:11.926Z,943.74
2023-04-15T08:29:14.734Z,943.73
2023-04-15T08:30:17.715Z,943.78
2023-04-15T08:31:19.850Z,943.77
2023-04-15T08:32:21.828Z,943.79
2023-04-15T08:33:23.729Z,943.78
2023-04-15T08:35:27.721Z,943.81
2023-04-15T08:36:29.775Z,943.82
2023-04-15T08:37:31.721Z,943.78
2023-04-15T08:38:33.717Z,943.76
2023-04-15T08:39:35.724Z,943.81
2023-04-15T08:40:37.737Z,943.83
2023-04-15T08:41:39.765Z,943.83
2023-04-15T08:42:42.965Z,943.87
2023-04-15T08:43:43.726Z,943.86
2023-04-15T08:44:45.729Z,943.85
2023-04-15T08:45:47.765Z,943.86
2023-04-15T08:46:49.883Z,943.92
2023-04-15T08:47:51.751Z,943.9
2023-04-15T08:48:53.727Z,943.92
2023-04-15T08:49:55.750Z,943.89
2023-04-15T08:50:57.736Z,943.92
2023-04-15T08:52:11.852Z,943.91
2023-04-15T08:53:11.829Z,943.94
2023-04-15T08:54:11.807Z,943.93
2023-04-15T08:56:12.138Z,943.93
2023-04-15T08:57:11.855Z,943.93
2023-04-15T08:58:11.948Z,943.95
2023-04-15T08:59:14.770Z,943.97
2023-04-15T09:00:17.763Z,944
2023-04-15T09:01:19.850Z,944.03
2023-04-15T09:02:21.876Z,944.03
2023-04-15T09:03:23.898Z,944.05
2023-04-15T09:04:26.747Z,944.04
2023-04-15T09:05:28.750Z,944.01
2023-04-15T09:06:30.746Z,943.98
2023-04-15T09:07:32.800Z,944
2023-04-15T09:08:34.742Z,943.96
2023-04-15T09:10:38.752Z,944
2023-04-15T09:11:40.750Z,944.03
2023-04-15T09:13:11.930Z,943.98
2023-04-15T09:14:47.788Z,943.99
2023-04-15T09:15:49.757Z,944.02
2023-04-15T09:16:51.799Z,944.02
2023-04-15T09:17:53.797Z,944.03
2023-04-15T09:18:55.750Z,944.05
2023-04-15T09:19:57.797Z,944.07
2023-04-15T09:22:19.442Z,944.13
2023-04-15T09:23:21.453Z,944.09
2023-04-15T09:24:24.057Z,944.09
2023-04-15T09:26:29.044Z,944.13
2023-04-15T09:28:33.059Z,944.11
2023-04-15T09:29:35.080Z,944.15
2023-04-15T09:31:39.123Z,944.15
2023-04-15T09:32:41.080Z,944.18
2023-04-15T09:34:11.945Z,944.18
2023-04-15T09:35:11.827Z,944.23
2023-04-15T09:36:11.840Z,944.22
2023-04-15T09:37:12.965Z,944.24
2023-04-15T09:38:11.825Z,944.23
2023-04-15T09:39:11.878Z,944.28
2023-04-15T09:40:11.850Z,944.29
2023-04-15T09:43:15.970Z,944.28
2023-04-15T09:45:05.995Z,944.33
2023-04-15T09:46:08.051Z,944.32
2023-04-15T09:47:09.946Z,944.33
2023-04-15T09:49:14.118Z,944.34
2023-04-15T09:50:16.056Z,944.33
2023-04-15T09:52:21.001Z,944.36
2023-04-15T09:53:23.961Z,944.35
2023-04-15T09:56:11.908Z,944.36
2023-04-15T09:57:12.234Z,944.37
2023-04-15T09:58:35.023Z,944.42
2023-04-15T09:59:37.025Z,944.41
2023-04-15T10:00:39.013Z,944.42
2023-04-15T10:01:41.010Z,944.43
2023-04-15T10:03:45.216Z,944.47
2023-04-15T10:04:47.005Z,944.49
2023-04-15T10:05:48.969Z,944.48
2023-04-15T10:06:51.056Z,944.44
2023-04-15T10:07:52.972Z,944.43
2023-04-15T10:08:54.975Z,944.41
2023-04-15T10:09:57.029Z,944.42
2023-04-15T10:12:01.970Z,944.41
2023-04-15T10:13:04.018Z,944.39
2023-04-15T10:15:08.038Z,944.43
2023-04-15T10:16:10.041Z,944.42
2023-04-15T10:17:12.197Z,944.39
2023-04-15T10:18:13.976Z,944.38
2023-04-15T10:19:15.974Z,944.46
2023-04-15T10:20:18.037Z,944.46
2023-04-15T10:21:19.980Z,944.45
2023-04-15T10:22:21.968Z,944.44
2023-04-15T10:23:27.978Z,944.43
2023-04-15T10:24:29.980Z,944.41
2023-04-15T10:25:32.022Z,944.41
2023-04-15T10:27:11.924Z,944.42
2023-04-15T10:28:11.882Z,944.34
2023-04-15T10:30:11.870Z,944.39
2023-04-15T10:31:45.182Z,944.44
2023-04-15T10:32:47.067Z,944.46
2023-04-15T10:34:11.886Z,944.5
2023-04-15T10:35:11.898Z,944.48
2023-04-15T10:36:54.994Z,944.51
2023-04-15T10:37:58.059Z,944.47
2023-04-15T10:38:59.988Z,944.47
2023-04-15T10:40:02.122Z,944.48
2023-04-15T10:41:03.995Z,944.46
2023-04-15T10:43:08.132Z,944.47
2023-04-15T10:44:10.032Z,944.46
2023-04-15T10:45:12.222Z,944.42
2023-04-15T10:46:14.003Z,944.44
2023-04-15T10:47:16.990Z,944.49
2023-04-15T10:48:18.997Z,944.49
2023-04-15T10:49:21.021Z,944.51
2023-04-15T10:50:24.031Z,944.53
2023-04-15T10:51:26.997Z,944.5
2023-04-15T10:52:28.989Z,944.55
2023-04-15T10:53:31.055Z,944.53
2023-04-15T10:54:33.058Z,944.58
2023-04-15T10:55:35.008Z,944.54
2023-04-15T10:56:37.057Z,944.54
2023-04-15T10:57:39.019Z,944.54
2023-04-15T10:59:43.010Z,944.54
2023-04-15T11:00:44.999Z,944.56
2023-04-15T11:01:47.123Z,944.58
2023-04-15T11:03:12.072Z,944.58
2023-04-15T11:04:11.935Z,944.62
2023-04-15T11:05:55.002Z,944.61
2023-04-15T11:06:57.022Z,944.6
2023-04-15T11:07:59.007Z,944.62
2023-04-15T11:09:01.015Z,944.61
2023-04-15T11:11:05.025Z,944.59
2023-04-15T11:13:10.015Z,944.63
2023-04-15T11:14:12.915Z,944.65
2023-04-15T11:15:14.823Z,944.67
2023-04-15T11:16:16.887Z,944.72
2023-04-15T11:17:18.830Z,944.77
2023-04-15T11:18:21.829Z,944.72
2023-04-15T11:20:27.884Z,944.73
2023-04-15T11:21:29.859Z,944.75
2023-04-15T11:22:31.932Z,944.78
2023-04-15T11:23:33.841Z,944.78
2023-04-15T11:25:37.823Z,944.76
2023-04-15T11:27:41.875Z,944.78
2023-04-15T11:28:43.821Z,944.79
2023-04-15T11:29:45.883Z,944.8
2023-04-15T11:32:51.865Z,944.75
2023-04-15T11:33:54.547Z,944.72
2023-04-15T11:34:56.851Z,944.73
2023-04-15T11:35:58.841Z,944.72
2023-04-15T11:37:00.833Z,944.71
2023-04-15T11:38:02.840Z,944.78
2023-04-15T11:39:04.878Z,944.8
2023-04-15T11:40:06.843Z,944.8
2023-04-15T11:41:08.847Z,944.84
2023-04-15T11:42:11.849Z,944.9
2023-04-15T11:43:13.852Z,944.92
2023-04-15T11:44:15.901Z,944.92
2023-04-15T11:45:17.901Z,944.88
2023-04-15T11:46:20.077Z,944.92
2023-04-15T11:47:21.866Z,944.9
2023-04-15T11:48:23.869Z,944.94
2023-04-15T11:49:26.850Z,944.94
2023-04-15T11:50:28.848Z,944.97
2023-04-15T11:51:30.889Z,944.94
2023-04-15T11:52:32.853Z,944.96
2023-04-15T11:53:34.853Z,944.97
2023-04-15T11:54:36.853Z,944.98
2023-04-15T11:55:38.858Z,944.98
2023-04-15T11:56:40.860Z,944.99
2023-04-15T11:57:42.852Z,945.02
2023-04-15T11:58:44.855Z,945.02
2023-04-15T11:59:46.877Z,945.03
2023-04-15T12:00:48.909Z,945.03
2023-04-15T12:01:50.871Z,945.05
2023-04-15T12:02:53.000Z,945.07
2023-04-15T12:05:10.094Z,945.06
2023-04-15T12:05:59.855Z,945.1
2023-04-15T12:07:16.124Z,945.12
2023-04-15T12:08:11.939Z,945.11
2023-04-15T12:09:11.991Z,945.09
2023-04-15T12:10:11.943Z,945.11
2023-04-15T12:11:11.956Z,945.14
2023-04-15T12:12:12.068Z,945.14
2023-04-15T12:14:15.905Z,945.18
2023-04-15T12:15:17.879Z,945.2
2023-04-15T12:16:20.018Z,945.24
2023-04-15T12:17:21.880Z,945.28
2023-04-15T12:19:29.899Z,945.38
2023-04-15T12:20:31.954Z,945.38
2023-04-15T12:21:33.872Z,945.39
2023-04-15T12:23:11.959Z,945.37
2023-04-15T12:24:11.963Z,945.37
2023-04-15T12:26:11.999Z,945.38
2023-04-15T12:27:11.971Z,945.38
2023-04-15T12:28:11.951Z,945.38
2023-04-15T12:29:11.953Z,945.38
2023-04-15T12:30:12.021Z,945.4
2023-04-15T12:31:12.019Z,945.38
2023-04-15T12:33:11.959Z,945.4
2023-04-15T12:35:11.988Z,945.43
2023-04-15T12:36:12.008Z,945.43
2023-04-15T12:37:11.974Z,945.47
2023-04-15T12:38:12.016Z,945.48
2023-04-15T12:39:11.965Z,945.46
2023-04-15T12:40:11.977Z,945.48
2023-04-15T12:42:15.991Z,945.52
2023-04-15T12:43:17.888Z,945.54
2023-04-15T12:46:12.002Z,945.54
2023-04-15T12:48:12.045Z,945.59
2023-04-15T12:50:11.977Z,945.63
2023-04-15T12:51:36.539Z,945.66
2023-04-15T12:52:38.564Z,945.64
2023-04-15T12:53:40.508Z,945.68
2023-04-15T12:54:42.509Z,945.69
2023-04-15T12:56:11.985Z,945.69
2023-04-15T12:57:48.608Z,945.71
2023-04-15T12:58:50.512Z,945.7
2023-04-15T12:59:52.506Z,945.72
2023-04-15T13:00:54.521Z,945.74
2023-04-15T13:01:56.596Z,945.77
2023-04-15T13:02:59.679Z,945.78
2023-04-15T13:04:12.109Z,945.77
2023-04-15T13:05:11.988Z,945.78
2023-04-15T13:06:11.983Z,945.81
2023-04-15T13:08:12.037Z,945.85
2023-04-15T13:09:11.997Z,945.86
2023-04-15T13:11:15.515Z,945.89
2023-04-15T13:12:17.524Z,945.87
2023-04-15T13:13:19.518Z,945.88
2023-04-15T13:14:21.577Z,945.89
2023-04-15T13:15:24.588Z,945.89
2023-04-15T13:16:27.602Z,945.9
2023-04-15T13:17:29.582Z,945.87
2023-04-15T13:18:31.560Z,945.87
2023-04-15T13:19:33.516Z,945.85
2023-04-15T13:21:11.999Z,945.86
2023-04-15T13:22:11.997Z,945.87
2023-04-15T13:23:11.996Z,945.85
2023-04-15T13:24:12.066Z,945.88
2023-04-15T13:25:11.990Z,945.9
2023-04-15T13:26:12.015Z,945.9
2023-04-15T13:27:12.002Z,945.92
2023-04-15T13:28:12.000Z,945.94
2023-04-15T13:29:12.050Z,945.95
2023-04-15T13:30:12.041Z,945.99
2023-04-15T13:31:12.073Z,945.96
2023-04-15T13:32:11.999Z,945.97
2023-04-15T13:33:12.009Z,945.97
2023-04-15T13:34:12.062Z,946.02
2023-04-15T13:35:12.000Z,946.04
2023-04-15T13:36:12.012Z,946
2023-04-15T13:38:12.006Z,946.03
2023-04-15T13:40:15.019Z,946.03
2023-04-15T13:41:16.979Z,946.04
2023-04-15T13:42:19.000Z,946.03
2023-04-15T13:43:20.964Z,946.07
2023-04-15T13:44:23.005Z,946.05
2023-04-15T13:45:25.029Z,946.09
2023-04-15T13:46:26.965Z,946.1
2023-04-15T13:47:29.980Z,946.11
2023-04-15T13:48:31.995Z,946.09
2023-04-15T13:49:34.007Z,946.15
2023-04-15T13:50:35.962Z,946.13
2023-04-15T13:51:37.957Z,946.12
2023-04-15T13:52:40.075Z,946.13
2023-04-15T13:53:42.967Z,946.14
2023-04-15T13:54:45.018Z,946.15
2023-04-15T13:55:46.964Z,946.2
2023-04-15T13:56:48.961Z,946.21
2023-04-15T13:57:51.978Z,946.23
2023-04-15T13:58:53.979Z,946.25
2023-04-15T13:59:56.050Z,946.24
2023-04-15T14:00:58.081Z,946.22
2023-04-15T14:02:00.051Z,946.27
2023-04-15T14:03:02.151Z,946.28
2023-04-15T14:04:04.390Z,946.24
2023-04-15T14:06:09.033Z,946.29
2023-04-15T14:07:11.093Z,946.27
2023-04-15T14:08:13.359Z,946.3
2023-04-15T14:09:15.991Z,946.33